Time;durP1;ratioP1;P1;durP2;ratioP2;P2;SDS_P1;SDS_P2;PMS_P1;PMS_P2;Temp;Humidity;BMP_temperature;BMP_pressure;BME280_temperature;BME280_humidity;BME280_pressure;Samples;Min_cycle;Max_cycle;Signal;HPM_P1;HPM_P2
2021/06/20 00:01:33;;;;;;;1.40;1.17;;;;;;;;;;5010006;28;20058;-53
2021/06/20 00:04:00;;;;;;;2.85;1.20;;;;;;;;;;5008696;28;20046;-53
2021/06/20 00:06:35;;;;;;;1.30;1.20;;;;;;;;;;5009416;28;20387;-53
2021/06/20 00:09:06;;;;;;;1.17;1.10;;;;;;;;;;5006242;28;20113;-53
2021/06/20 00:11:34;;;;;;;1.20;1.10;;;;;;;;;;5005662;28;20035;-52
2021/06/20 00:14:01;;;;;;;1.05;1.02;;;;;;;;;;5009662;28;20058;-53
2021/06/20 00:16:29;;;;;;;4.68;1.10;;;;;;;;;;5006535;28;20104;-52
2021/06/20 00:18:57;;;;;;;3.15;1.10;;;;;;;;;;5008440;28;20050;-52
2021/06/20 00:21:25;;;;;;;3.20;1.20;;;;;;;;;;5007521;28;20482;-53
2021/06/20 00:23:51;;;;;;;1.10;1.10;;;;;;;;;;5007965;28;20025;-53
2021/06/20 00:26:18;;;;;;;6.63;1.60;;;;;;;;;;5010061;28;20077;-53
2021/06/20 00:28:45;;;;;;;2.15;1.00;;;;;;;;;;5007760;28;20042;-53
2021/06/20 00:31:12;;;;;;;1.90;1.13;;;;;;;;;;5009315;28;20034;-53
2021/06/20 00:33:40;;;;;;;2.58;1.90;;;;;;;;;;5008255;28;20100;-53
2021/06/20 00:36:07;;;;;;;3.63;1.30;;;;;;;;;;5008272;28;20039;-51
2021/06/20 00:38:34;;;;;;;1.65;1.05;;;;;;;;;;5009247;28;20042;-51
2021/06/20 00:41:01;;;;;;;1.00;1.00;;;;;;;;;;5008346;28;20058;-52
2021/06/20 00:43:28;;;;;;;1.20;1.00;;;;;;;;;;4993009;28;20081;-52
2021/06/20 00:45:55;;;;;;;2.22;1.00;;;;;;;;;;5011900;28;20050;-52
2021/06/20 00:48:22;;;;;;;1.58;1.10;;;;;;;;;;5009884;28;20197;-52
2021/06/20 00:50:48;;;;;;;1.00;1.00;;;;;;;;;;5013827;28;20034;-53
2021/06/20 00:53:15;;;;;;;2.70;1.00;;;;;;;;;;5010595;28;20042;-51
2021/06/20 00:55:44;;;;;;;1.10;1.10;;;;;;;;;;5011906;28;20461;-50
2021/06/20 00:58:11;;;;;;;1.10;1.10;;;;;;;;;;5012159;28;20073;-53
2021/06/20 01:00:39;;;;;;;1.02;1.02;;;;;;;;;;5010532;28;20046;-53
2021/06/20 01:03:06;;;;;;;1.20;1.20;;;;;;;;;;5011749;28;20042;-53
2021/06/20 01:05:33;;;;;;;2.78;1.05;;;;;;;;;;5009004;28;20046;-52
2021/06/20 01:08:02;;;;;;;4.68;1.52;;;;;;;;;;5010440;28;20049;-52
2021/06/20 01:10:40;;;;;;;1.30;1.00;;;;;;;;;;5012054;28;20050;-52
2021/06/20 01:13:09;;;;;;;1.58;1.58;;;;;;;;;;5011059;28;20052;-52
2021/06/20 01:15:36;;;;;;;1.30;1.20;;;;;;;;;;5009980;28;20058;-52
2021/06/20 01:18:03;;;;;;;4.43;1.20;;;;;;;;;;5010318;28;20479;-53
2021/06/20 01:20:30;;;;;;;1.80;1.65;;;;;;;;;;5008620;28;20045;-53
2021/06/20 01:22:57;;;;;;;1.60;1.17;;;;;;;;;;5011431;28;20081;-52
2021/06/20 01:25:26;;;;;;;1.65;1.10;;;;;;;;;;5010863;28;20044;-52
2021/06/20 01:27:54;;;;;;;1.98;1.02;;;;;;;;;;5010619;28;20096;-53
2021/06/20 01:30:23;;;;;;;2.53;1.10;;;;;;;;;;5012339;28;20029;-52
2021/06/20 01:32:50;;;;;;;2.17;1.48;;;;;;;;;;5011067;28;20057;-52
2021/06/20 01:35:17;;;;;;;1.38;1.27;;;;;;;;;;5011786;28;20124;-53
2021/06/20 01:37:44;;;;;;;2.17;1.65;;;;;;;;;;5008545;28;20041;-51
2021/06/20 01:40:12;;;;;;;3.10;1.35;;;;;;;;;;5009398;28;20447;-54
2021/06/20 01:42:40;;;;;;;1.60;1.50;;;;;;;;;;5012295;28;20049;-50
2021/06/20 01:45:08;;;;;;;1.73;1.20;;;;;;;;;;5001994;28;20081;-51
2021/06/20 01:47:35;;;;;;;2.90;1.25;;;;;;;;;;5011342;28;20476;-52
2021/06/20 01:50:04;;;;;;;1.13;1.13;;;;;;;;;;5009553;28;20034;-53
2021/06/20 01:52:31;;;;;;;2.35;1.40;;;;;;;;;;5007254;28;20046;-52
2021/06/20 01:54:58;;;;;;;1.73;1.63;;;;;;;;;;5012473;28;20077;-53
2021/06/20 01:57:26;;;;;;;1.80;1.70;;;;;;;;;;5005474;28;20042;-52
2021/06/20 01:59:54;;;;;;;3.75;1.08;;;;;;;;;;5010854;28;20144;-53
2021/06/20 02:02:21;;;;;;;1.40;1.20;;;;;;;;;;5010462;28;20076;-52
2021/06/20 02:04:50;;;;;;;2.03;1.25;;;;;;;;;;5009659;28;20044;-52
2021/06/20 02:07:17;;;;;;;2.03;1.45;;;;;;;;;;5011365;28;20091;-53
2021/06/20 02:09:44;;;;;;;6.32;1.15;;;;;;;;;;5008546;28;20596;-53
2021/06/20 02:12:11;;;;;;;1.45;1.35;;;;;;;;;;5004646;28;20549;-53
2021/06/20 02:14:38;;;;;;;1.50;1.50;;;;;;;;;;5010122;28;20446;-53
2021/06/20 02:17:25;;;;;;;2.55;1.48;;;;;;;;;;5009556;28;20120;-52
2021/06/20 02:19:52;;;;;;;1.77;1.30;;;;;;;;;;5008902;28;20076;-51
2021/06/20 02:22:20;;;;;;;4.93;1.40;;;;;;;;;;5007950;28;20065;-53
2021/06/20 02:24:47;;;;;;;2.15;1.45;;;;;;;;;;5008603;28;20080;-52
2021/06/20 02:27:14;;;;;;;2.35;1.80;;;;;;;;;;5021560;28;20037;-53
2021/06/20 02:29:42;;;;;;;1.38;1.38;;;;;;;;;;5003713;28;20033;-52
2021/06/20 02:32:09;;;;;;;2.22;1.25;;;;;;;;;;5010409;28;20084;-53
2021/06/20 02:34:37;;;;;;;1.13;1.13;;;;;;;;;;5010048;28;20462;-50
2021/06/20 02:37:05;;;;;;;7.13;1.25;;;;;;;;;;5009131;28;20080;-53
2021/06/20 02:39:32;;;;;;;2.33;1.60;;;;;;;;;;5010365;28;20042;-53
2021/06/20 02:41:59;;;;;;;1.50;1.40;;;;;;;;;;5003333;28;20120;-54
2021/06/20 02:44:26;;;;;;;1.48;1.30;;;;;;;;;;5009535;28;20061;-53
2021/06/20 02:46:54;;;;;;;5.23;1.23;;;;;;;;;;5010304;28;20038;-52
2021/06/20 02:49:20;;;;;;;1.10;1.10;;;;;;;;;;5007578;28;20070;-52
2021/06/20 02:51:47;;;;;;;3.35;1.48;;;;;;;;;;5024254;28;20624;-53
2021/06/20 02:54:14;;;;;;;1.27;1.27;;;;;;;;;;5008318;28;20095;-53
2021/06/20 02:56:41;;;;;;;2.60;1.52;;;;;;;;;;5009937;28;20121;-53
2021/06/20 02:59:09;;;;;;;3.63;1.25;;;;;;;;;;5010813;28;20107;-53
2021/06/20 03:01:35;;;;;;;1.42;1.33;;;;;;;;;;5004940;28;20041;-54
2021/06/20 03:04:02;;;;;;;2.25;1.48;;;;;;;;;;5009569;28;20050;-52
2021/06/20 03:06:29;;;;;;;1.58;1.58;;;;;;;;;;5007669;28;20519;-51
2021/06/20 03:08:56;;;;;;;4.78;1.50;;;;;;;;;;5007456;28;20089;-52
2021/06/20 03:11:23;;;;;;;3.97;1.75;;;;;;;;;;5009949;28;20451;-52
2021/06/20 03:13:50;;;;;;;2.63;1.20;;;;;;;;;;5008100;28;20359;-51
2021/06/20 03:16:19;;;;;;;2.30;1.25;;;;;;;;;;5009857;28;20437;-53
2021/06/20 03:18:49;;;;;;;1.77;1.33;;;;;;;;;;5007073;28;20052;-52
2021/06/20 03:21:17;;;;;;;1.95;1.73;;;;;;;;;;5008957;28;20034;-51
2021/06/20 03:23:44;;;;;;;2.15;1.85;;;;;;;;;;5009049;28;20073;-51
2021/06/20 03:26:12;;;;;;;1.50;1.30;;;;;;;;;;5005588;28;20046;-53
2021/06/20 03:28:39;;;;;;;1.70;1.60;;;;;;;;;;5021771;28;20034;-52
2021/06/20 03:31:06;;;;;;;2.15;1.35;;;;;;;;;;5007915;28;20133;-52
2021/06/20 03:33:34;;;;;;;2.55;1.98;;;;;;;;;;5005704;28;20053;-50
2021/06/20 03:36:01;;;;;;;1.63;1.52;;;;;;;;;;5009593;28;20386;-54
2021/06/20 03:38:28;;;;;;;1.95;1.20;;;;;;;;;;5007988;28;20138;-52
2021/06/20 03:40:55;;;;;;;1.92;1.83;;;;;;;;;;5008853;28;20625;-53
2021/06/20 03:43:21;;;;;;;2.00;1.33;;;;;;;;;;5008325;28;20482;-53
2021/06/20 03:45:48;;;;;;;1.67;1.58;;;;;;;;;;5005890;28;20120;-53
2021/06/20 03:48:15;;;;;;;2.08;1.48;;;;;;;;;;5010772;28;20081;-53
2021/06/20 03:50:42;;;;;;;2.10;1.52;;;;;;;;;;5008293;28;20049;-52
2021/06/20 03:53:11;;;;;;;2.60;2.30;;;;;;;;;;5008125;28;20092;-53
2021/06/20 03:55:38;;;;;;;3.90;1.70;;;;;;;;;;5009792;28;20046;-50
2021/06/20 03:58:06;;;;;;;3.97;1.73;;;;;;;;;;5006946;28;20070;-53
2021/06/20 04:00:34;;;;;;;5.57;2.40;;;;;;;;;;5009505;28;20112;-53
2021/06/20 04:03:01;;;;;;;2.28;2.17;;;;;;;;;;5006101;28;20092;-53
2021/06/20 04:05:28;;;;;;;2.95;1.52;;;;;;;;;;4992516;28;20062;-54
2021/06/20 04:07:55;;;;;;;1.30;1.20;;;;;;;;;;5017400;28;20052;-52
2021/06/20 04:10:21;;;;;;;4.70;1.48;;;;;;;;;;5011084;28;20050;-53
2021/06/20 04:12:48;;;;;;;1.60;1.50;;;;;;;;;;5009527;28;20053;-52
2021/06/20 04:15:15;;;;;;;1.75;1.65;;;;;;;;;;5008815;28;20046;-52
2021/06/20 04:17:43;;;;;;;3.00;1.60;;;;;;;;;;5010719;28;20141;-53
2021/06/20 04:20:12;;;;;;;5.93;1.73;;;;;;;;;;5012734;28;20673;-52
2021/06/20 04:22:40;;;;;;;3.60;1.70;;;;;;;;;;5009606;28;20073;-53
2021/06/20 04:25:07;;;;;;;2.55;2.08;;;;;;;;;;5012670;28;20045;-54
2021/06/20 04:27:35;;;;;;;3.15;1.80;;;;;;;;;;5012514;28;20050;-57
2021/06/20 04:30:01;;;;;;;2.42;1.83;;;;;;;;;;5010790;28;20069;-53
2021/06/20 04:32:29;;;;;;;4.05;1.70;;;;;;;;;;5011198;28;20048;-53
2021/06/20 04:34:55;;;;;;;3.50;1.80;;;;;;;;;;5010094;28;20094;-52
2021/06/20 04:37:22;;;;;;;2.30;1.90;;;;;;;;;;5012932;28;20034;-53
2021/06/20 04:39:49;;;;;;;1.60;1.40;;;;;;;;;;5010781;28;20046;-52
2021/06/20 04:42:17;;;;;;;2.13;1.60;;;;;;;;;;5012925;28;20112;-52
2021/06/20 04:47:15;;;;;;;1.67;1.58;;;;;;;;;;5009582;28;20577;-53
2021/06/20 04:49:42;;;;;;;2.35;1.45;;;;;;;;;;5011656;28;21504;-52
2021/06/20 04:52:10;;;;;;;2.08;1.98;;;;;;;;;;5013009;28;20076;-51
2021/06/20 04:54:49;;;;;;;2.88;1.90;;;;;;;;;;5010995;28;20046;-53
2021/06/20 04:57:20;;;;;;;5.07;2.17;;;;;;;;;;5012530;28;20038;-53
2021/06/20 04:59:47;;;;;;;2.00;1.90;;;;;;;;;;5012886;28;20045;-51
2021/06/20 05:02:14;;;;;;;1.80;1.70;;;;;;;;;;5009126;28;20045;-52
2021/06/20 05:04:41;;;;;;;3.72;1.65;;;;;;;;;;5013305;28;20454;-53
2021/06/20 05:07:08;;;;;;;1.67;1.58;;;;;;;;;;5012555;28;20042;-53
2021/06/20 05:09:36;;;;;;;2.30;2.13;;;;;;;;;;5012012;28;20042;-53
2021/06/20 05:12:04;;;;;;;2.58;2.38;;;;;;;;;;5012748;28;20371;-53
2021/06/20 05:14:31;;;;;;;2.00;1.90;;;;;;;;;;5008830;28;20033;-53
2021/06/20 05:16:58;;;;;;;2.70;2.28;;;;;;;;;;5012706;28;20046;-52
2021/06/20 05:19:25;;;;;;;2.30;1.60;;;;;;;;;;5008873;28;20058;-52
2021/06/20 05:21:52;;;;;;;2.08;1.88;;;;;;;;;;5010149;28;20121;-51
2021/06/20 05:24:18;;;;;;;2.30;2.13;;;;;;;;;;5011108;28;20042;-52
2021/06/20 05:26:45;;;;;;;2.30;2.03;;;;;;;;;;5009217;28;20080;-52
2021/06/20 05:29:12;;;;;;;2.40;2.20;;;;;;;;;;5022063;28;20374;-52
2021/06/20 05:31:38;;;;;;;1.92;1.83;;;;;;;;;;5010801;28;20124;-52
2021/06/20 05:34:05;;;;;;;2.17;1.83;;;;;;;;;;5010413;28;20099;-52
2021/06/20 05:36:32;;;;;;;4.78;2.33;;;;;;;;;;5012428;28;20167;-52
2021/06/20 05:38:59;;;;;;;2.25;2.15;;;;;;;;;;5009005;28;20062;-52
2021/06/20 05:41:26;;;;;;;8.50;2.28;;;;;;;;;;5011249;28;20111;-53
2021/06/20 05:43:53;;;;;;;1.95;1.85;;;;;;;;;;5009249;28;20070;-51
2021/06/20 05:46:22;;;;;;;5.55;2.10;;;;;;;;;;5004579;28;20050;-50
2021/06/20 05:48:49;;;;;;;2.08;1.98;;;;;;;;;;5010151;28;20036;-53
2021/06/20 05:51:16;;;;;;;2.60;2.50;;;;;;;;;;5010508;28;20042;-52
2021/06/20 05:53:43;;;;;;;2.10;2.00;;;;;;;;;;5011452;28;20559;-52
2021/06/20 05:56:10;;;;;;;2.28;2.08;;;;;;;;;;5008525;28;20073;-51
2021/06/20 05:58:37;;;;;;;2.85;2.03;;;;;;;;;;5007481;28;20088;-52
2021/06/20 06:01:04;;;;;;;2.70;2.50;;;;;;;;;;5011148;28;20510;-53
2021/06/20 06:03:32;;;;;;;1.70;1.65;;;;;;;;;;5001136;28;20112;-52
2021/06/20 06:05:59;;;;;;;2.33;2.15;;;;;;;;;;5001088;28;20049;-51
2021/06/20 06:08:25;;;;;;;1.80;1.70;;;;;;;;;;5009277;28;20077;-51
2021/06/20 06:10:52;;;;;;;1.92;1.83;;;;;;;;;;5008426;28;20449;-52
2021/06/20 06:13:19;;;;;;;1.50;1.50;;;;;;;;;;5012007;28;20049;-52
2021/06/20 06:15:45;;;;;;;4.25;2.00;;;;;;;;;;5006542;28;20061;-52
2021/06/20 06:18:12;;;;;;;1.75;1.65;;;;;;;;;;4994633;28;20444;-52
2021/06/20 06:20:39;;;;;;;2.00;1.90;;;;;;;;;;5004059;28;20050;-54
2021/06/20 06:23:06;;;;;;;2.05;1.45;;;;;;;;;;5010063;28;20108;-51
2021/06/20 06:25:33;;;;;;;2.22;2.13;;;;;;;;;;4997904;28;20042;-52
2021/06/20 06:28:01;;;;;;;2.38;2.00;;;;;;;;;;5003583;28;20449;-52
2021/06/20 06:30:28;;;;;;;3.40;2.03;;;;;;;;;;5009530;28;20089;-49
2021/06/20 06:32:54;;;;;;;1.58;1.50;;;;;;;;;;5009549;28;20445;-53
2021/06/20 06:35:21;;;;;;;2.45;1.73;;;;;;;;;;5006907;28;20099;-52
2021/06/20 06:37:50;;;;;;;1.40;1.30;;;;;;;;;;5010157;28;20478;-53
2021/06/20 06:40:17;;;;;;;1.70;1.60;;;;;;;;;;5007031;28;20065;-53
2021/06/20 06:42:44;;;;;;;5.63;1.80;;;;;;;;;;5009542;28;20093;-52
2021/06/20 06:45:11;;;;;;;3.60;2.30;;;;;;;;;;5010806;28;20054;-53
2021/06/20 06:47:38;;;;;;;1.95;1.85;;;;;;;;;;5002668;28;20046;-53
2021/06/20 06:50:06;;;;;;;2.17;2.03;;;;;;;;;;4999444;28;20081;-52
2021/06/20 06:52:33;;;;;;;2.58;1.88;;;;;;;;;;5006726;28;20038;-53
2021/06/20 06:55:00;;;;;;;2.00;1.90;;;;;;;;;;5006107;28;20057;-53
2021/06/20 06:57:27;;;;;;;2.42;2.22;;;;;;;;;;5010915;28;20470;-52
2021/06/20 06:59:54;;;;;;;4.15;1.85;;;;;;;;;;5007853;28;20053;-53
2021/06/20 07:02:22;;;;;;;1.83;1.70;;;;;;;;;;5005297;28;20053;-52
2021/06/20 07:04:50;;;;;;;5.72;1.98;;;;;;;;;;5007600;28;20132;-53
2021/06/20 07:07:20;;;;;;;4.00;1.92;;;;;;;;;;5009054;28;20065;-53
2021/06/20 07:09:47;;;;;;;2.92;2.63;;;;;;;;;;5002919;28;20034;-52
2021/06/20 07:12:13;;;;;;;7.18;2.03;;;;;;;;;;5004388;28;20095;-53
2021/06/20 07:14:40;;;;;;;2.47;2.38;;;;;;;;;;5004318;28;20078;-53
2021/06/20 07:17:09;;;;;;;2.40;2.20;;;;;;;;;;5005974;28;20470;-53
2021/06/20 07:19:36;;;;;;;2.53;2.42;;;;;;;;;;4998827;28;20070;-52
2021/06/20 07:22:03;;;;;;;1.63;1.52;;;;;;;;;;5004975;28;20065;-54
2021/06/20 07:24:30;;;;;;;3.03;2.10;;;;;;;;;;5001288;28;20083;-53
2021/06/20 07:26:57;;;;;;;2.17;1.90;;;;;;;;;;5009144;28;20125;-53
2021/06/20 07:29:23;;;;;;;7.55;1.75;;;;;;;;;;5007373;28;20037;-53
2021/06/20 07:31:50;;;;;;;1.95;1.77;;;;;;;;;;5000464;28;20066;-52
2021/06/20 07:34:17;;;;;;;2.95;2.45;;;;;;;;;;5009053;28;20445;-54
2021/06/20 07:36:44;;;;;;;2.78;1.70;;;;;;;;;;5001467;28;20037;-53
2021/06/20 07:39:11;;;;;;;3.63;1.63;;;;;;;;;;4999085;28;20074;-53
2021/06/20 07:41:38;;;;;;;4.53;2.20;;;;;;;;;;5006148;28;20069;-52
2021/06/20 07:44:05;;;;;;;4.90;2.10;;;;;;;;;;5008011;28;20030;-52
2021/06/20 07:46:32;;;;;;;1.48;1.30;;;;;;;;;;5008714;28;20467;-53
2021/06/20 07:48:58;;;;;;;2.58;2.00;;;;;;;;;;5006672;28;20052;-54
2021/06/20 07:51:25;;;;;;;12.65;1.55;;;;;;;;;;5012164;28;20049;-52
2021/06/20 07:53:52;;;;;;;3.00;1.38;;;;;;;;;;5010660;28;20088;-53
2021/06/20 07:56:20;;;;;;;2.70;1.80;;;;;;;;;;5013328;28;20034;-53
2021/06/20 07:58:47;;;;;;;6.88;1.60;;;;;;;;;;5009490;28;20116;-53
2021/06/20 08:01:13;;;;;;;1.58;1.35;;;;;;;;;;5013519;28;20077;-53
2021/06/20 08:03:40;;;;;;;1.33;1.30;;;;;;;;;;5007255;28;20497;-53
2021/06/20 08:06:07;;;;;;;1.42;1.33;;;;;;;;;;5009858;28;20861;-52
2021/06/20 08:08:33;;;;;;;3.00;1.10;;;;;;;;;;5012670;28;20046;-53
2021/06/20 08:11:02;;;;;;;1.63;1.10;;;;;;;;;;5012678;28;20468;-53
2021/06/20 08:13:29;;;;;;;1.77;1.55;;;;;;;;;;5007323;28;20125;-53
2021/06/20 08:15:56;;;;;;;5.75;1.20;;;;;;;;;;5014375;28;20076;-53
2021/06/20 08:18:23;;;;;;;4.50;1.83;;;;;;;;;;5009873;28;20049;-53
2021/06/20 08:20:50;;;;;;;3.75;1.40;;;;;;;;;;5009761;28;20045;-52
2021/06/20 08:23:16;;;;;;;3.33;1.10;;;;;;;;;;5011755;28;20042;-53
2021/06/20 08:25:43;;;;;;;2.03;1.10;;;;;;;;;;5011430;28;20038;-53
2021/06/20 08:28:10;;;;;;;2.10;1.15;;;;;;;;;;5009034;28;20498;-53
2021/06/20 08:30:37;;;;;;;3.40;1.40;;;;;;;;;;5011420;28;20520;-54
2021/06/20 08:33:03;;;;;;;3.13;1.30;;;;;;;;;;5009755;28;20045;-53
2021/06/20 08:35:30;;;;;;;1.50;1.10;;;;;;;;;;5011792;28;20501;-52
2021/06/20 08:37:57;;;;;;;2.72;1.10;;;;;;;;;;5012705;28;20117;-53
2021/06/20 08:40:24;;;;;;;2.28;1.20;;;;;;;;;;5012236;28;20048;-53
2021/06/20 08:42:51;;;;;;;5.78;1.30;;;;;;;;;;5011977;28;20498;-53
2021/06/20 08:45:17;;;;;;;1.00;0.90;;;;;;;;;;5009072;28;20073;-54
2021/06/20 08:47:45;;;;;;;1.50;1.20;;;;;;;;;;5004305;28;20042;-54
2021/06/20 08:50:12;;;;;;;2.53;0.90;;;;;;;;;;5006133;28;20065;-52
2021/06/20 08:52:39;;;;;;;2.33;0.90;;;;;;;;;;5010917;28;20038;-54
2021/06/20 08:55:11;;;;;;;3.42;1.05;;;;;;;;;;5012328;28;20122;-54
2021/06/20 08:57:39;;;;;;;2.58;0.85;;;;;;;;;;5009457;28;20382;-53
2021/06/20 09:00:07;;;;;;;4.38;0.85;;;;;;;;;;5007447;28;20125;-52
2021/06/20 09:02:34;;;;;;;1.17;0.95;;;;;;;;;;5007503;28;20042;-52
2021/06/20 09:05:02;;;;;;;5.57;1.70;;;;;;;;;;5009609;28;20411;-54
2021/06/20 09:07:30;;;;;;;4.13;1.00;;;;;;;;;;5013288;28;20042;-53
2021/06/20 09:10:07;;;;;;;4.60;0.90;;;;;;;;;;5009746;28;20422;-54
2021/06/20 09:12:48;;;;;;;3.80;0.82;;;;;;;;;;5012131;28;20125;-54
2021/06/20 09:15:16;;;;;;;2.58;1.10;;;;;;;;;;5012211;28;20490;-53
2021/06/20 09:17:57;;;;;;;5.30;1.20;;;;;;;;;;5009424;28;20038;-54
2021/06/20 09:20:37;;;;;;;2.28;0.90;;;;;;;;;;5011345;28;20125;-55
2021/06/20 09:23:09;;;;;;;3.38;1.40;;;;;;;;;;5006812;28;20045;-54
2021/06/20 09:25:40;;;;;;;5.23;0.90;;;;;;;;;;5002432;28;20041;-54
2021/06/20 09:28:09;;;;;;;3.40;1.08;;;;;;;;;;5006948;28;20042;-54
2021/06/20 09:30:43;;;;;;;3.75;0.80;;;;;;;;;;5006382;28;20449;-54
2021/06/20 09:33:10;;;;;;;9.57;1.42;;;;;;;;;;5003591;28;20648;-53
2021/06/20 09:35:45;;;;;;;5.35;0.90;;;;;;;;;;5009903;28;20042;-54
2021/06/20 09:38:20;;;;;;;7.47;1.20;;;;;;;;;;5009680;28;20042;-53
2021/06/20 09:40:47;;;;;;;3.72;1.00;;;;;;;;;;5009321;28;20066;-54
2021/06/20 09:43:15;;;;;;;13.50;1.10;;;;;;;;;;5011997;28;20065;-54
2021/06/20 09:45:43;;;;;;;5.22;1.02;;;;;;;;;;5008717;28;20073;-52
2021/06/20 09:48:20;;;;;;;8.35;0.95;;;;;;;;;;5004611;28;20097;-55
2021/06/20 09:50:47;;;;;;;4.45;1.00;;;;;;;;;;5008355;28;20030;-53
2021/06/20 09:53:14;;;;;;;6.28;1.00;;;;;;;;;;5010267;28;20033;-53
2021/06/20 09:55:41;;;;;;;6.50;0.90;;;;;;;;;;5009735;28;20065;-54
2021/06/20 09:58:07;;;;;;;6.68;0.80;;;;;;;;;;5004225;28;20617;-54
2021/06/20 10:00:38;;;;;;;6.95;1.17;;;;;;;;;;5007769;28;20069;-55
2021/06/20 10:03:06;;;;;;;11.73;1.00;;;;;;;;;;5008578;28;20121;-54
2021/06/20 10:05:33;;;;;;;12.93;0.88;;;;;;;;;;5009663;28;20042;-54
2021/06/20 10:08:02;;;;;;;13.20;1.13;;;;;;;;;;5005675;28;20034;-55
2021/06/20 10:10:30;;;;;;;7.07;1.10;;;;;;;;;;5004200;28;20061;-55
2021/06/20 10:12:57;;;;;;;7.55;0.90;;;;;;;;;;5008237;28;20049;-54
2021/06/20 10:15:27;;;;;;;11.20;1.45;;;;;;;;;;5007553;28;20041;-53
2021/06/20 10:17:56;;;;;;;6.07;1.30;;;;;;;;;;5010008;28;20138;-55
2021/06/20 10:20:28;;;;;;;7.72;1.10;;;;;;;;;;5003802;28;20077;-54
2021/06/20 10:22:55;;;;;;;;;;;;;;;;;;5009457;28;20580;-60
2021/06/20 10:25:26;;;;;;;7.85;1.10;;;;;;;;;;5008477;28;19925;-60
2021/06/20 10:27:58;;;;;;;8.05;0.98;;;;;;;;;;5006562;28;20054;-60
2021/06/20 10:30:24;;;;;;;1.25;0.80;;;;;;;;;;5007956;28;20062;-60
2021/06/20 10:32:52;;;;;;;4.93;1.00;;;;;;;;;;5003513;28;20042;-60
2021/06/20 10:35:22;;;;;;;5.38;0.82;;;;;;;;;;4999896;28;20573;-60
2021/06/20 10:37:51;;;;;;;7.15;1.30;;;;;;;;;;5010900;28;20046;-59
2021/06/20 10:40:22;;;;;;;7.10;1.45;;;;;;;;;;5008647;28;20050;-60
2021/06/20 10:42:50;;;;;;;5.15;0.90;;;;;;;;;;5007876;28;20042;-59
2021/06/20 10:45:26;;;;;;;7.97;1.00;;;;;;;;;;5004420;28;20069;-60
2021/06/20 10:47:53;;;;;;;6.50;0.75;;;;;;;;;;5005050;28;20120;-60
2021/06/20 10:50:19;;;;;;;5.78;0.70;;;;;;;;;;5009808;28;20129;-60
2021/06/20 10:52:56;;;;;;;2.70;0.82;;;;;;;;;;5009661;28;20351;-60
2021/06/20 10:55:24;;;;;;;7.38;1.15;;;;;;;;;;5007958;28;20046;-60
2021/06/20 10:57:55;;;;;;;5.03;0.70;;;;;;;;;;5006997;28;20034;-60
2021/06/20 11:00:28;;;;;;;6.05;1.25;;;;;;;;;;5005424;28;20489;-60
2021/06/20 11:03:05;;;;;;;4.38;0.80;;;;;;;;;;5008454;28;20502;-60
2021/06/20 11:05:41;;;;;;;6.32;1.73;;;;;;;;;;5011232;28;20402;-60
2021/06/20 11:08:08;;;;;;;2.47;0.80;;;;;;;;;;5006587;28;20536;-59
2021/06/20 11:10:34;;;;;;;5.85;0.90;;;;;;;;;;5007007;28;20082;-59
2021/06/20 11:13:04;;;;;;;7.60;0.95;;;;;;;;;;5017161;28;20128;-59
2021/06/20 11:15:31;;;;;;;3.90;0.80;;;;;;;;;;5008146;28;20117;-59
2021/06/20 11:18:08;;;;;;;8.73;0.70;;;;;;;;;;5010685;28;20095;-60
2021/06/20 11:20:35;;;;;;;7.75;0.90;;;;;;;;;;5007560;28;20124;-60
2021/06/20 11:23:03;;;;;;;5.35;0.98;;;;;;;;;;5006807;28;20121;-59
2021/06/20 11:25:30;;;;;;;4.72;0.70;;;;;;;;;;5009395;28;20042;-60
2021/06/20 11:27:57;;;;;;;8.95;0.98;;;;;;;;;;5008929;28;20429;-60
2021/06/20 11:30:24;;;;;;;3.28;1.15;;;;;;;;;;5008631;28;20552;-59
2021/06/20 11:32:51;;;;;;;7.93;1.05;;;;;;;;;;5007092;28;20034;-59
2021/06/20 11:35:20;;;;;;;8.57;0.70;;;;;;;;;;5007800;28;20065;-60
2021/06/20 11:37:55;;;;;;;3.45;0.60;;;;;;;;;;5010807;28;20041;-60
2021/06/20 11:40:25;;;;;;;7.10;1.30;;;;;;;;;;5007498;28;20065;-60
2021/06/20 11:42:53;;;;;;;11.38;0.90;;;;;;;;;;5008407;28;20156;-61
2021/06/20 11:45:28;;;;;;;8.63;0.70;;;;;;;;;;5010340;28;20077;-60
2021/06/20 11:48:00;;;;;;;5.30;0.60;;;;;;;;;;5007619;28;20045;-60
2021/06/20 11:50:29;;;;;;;1.48;0.60;;;;;;;;;;5009934;28;20466;-61
2021/06/20 11:52:58;;;;;;;9.20;1.13;;;;;;;;;;5008558;28;20072;-60
2021/06/20 11:55:26;;;;;;;4.65;0.63;;;;;;;;;;5007639;28;20034;-60
2021/06/20 11:57:54;;;;;;;9.23;1.00;;;;;;;;;;5010748;28;20080;-60
2021/06/20 12:00:22;;;;;;;7.50;1.10;;;;;;;;;;5007458;28;20096;-61
2021/06/20 12:03:00;;;;;;;8.02;0.95;;;;;;;;;;5008481;28;20132;-60
2021/06/20 12:05:27;;;;;;;5.88;0.80;;;;;;;;;;5009745;28;20091;-60
2021/06/20 12:07:58;;;;;;;7.65;1.30;;;;;;;;;;5007265;28;20073;-60
2021/06/20 12:10:24;;;;;;;8.80;1.15;;;;;;;;;;5008074;28;20482;-60
2021/06/20 12:13:01;;;;;;;7.30;0.80;;;;;;;;;;5006186;28;20034;-61
2021/06/20 12:15:29;;;;;;;8.10;0.60;;;;;;;;;;5006955;28;20770;-61
2021/06/20 12:17:56;;;;;;;11.50;1.25;;;;;;;;;;5009960;28;20042;-60
2021/06/20 12:20:30;;;;;;;13.80;1.10;;;;;;;;;;5007915;28;20605;-60
2021/06/20 12:22:57;;;;;;;3.17;0.80;;;;;;;;;;5009367;28;20100;-60
2021/06/20 12:25:24;;;;;;;4.25;0.95;;;;;;;;;;5009818;28;20075;-60
2021/06/20 12:27:51;;;;;;;9.32;1.48;;;;;;;;;;5009043;28;20125;-60
2021/06/20 12:30:22;;;;;;;10.68;0.80;;;;;;;;;;5009295;28;20104;-60
2021/06/20 12:32:49;;;;;;;5.25;1.17;;;;;;;;;;5009339;28;20048;-60
2021/06/20 12:35:24;;;;;;;9.32;1.25;;;;;;;;;;5007945;28;20046;-60
2021/06/20 12:37:53;;;;;;;10.88;1.00;;;;;;;;;;5013084;28;20058;-60
2021/06/20 12:40:21;;;;;;;10.25;0.90;;;;;;;;;;5010668;28;20130;-60
2021/06/20 12:42:50;;;;;;;10.13;0.95;;;;;;;;;;5013091;28;20066;-61
2021/06/20 12:45:25;;;;;;;6.55;0.70;;;;;;;;;;5010987;28;20593;-61
2021/06/20 12:47:52;;;;;;;4.57;1.13;;;;;;;;;;5012374;28;20494;-61
2021/06/20 12:50:27;;;;;;;5.85;1.08;;;;;;;;;;5001152;28;20035;-60
2021/06/20 12:52:54;;;;;;;3.42;0.70;;;;;;;;;;5004279;28;20077;-61
2021/06/20 12:55:21;;;;;;;8.20;0.70;;;;;;;;;;5012510;28;20054;-60
2021/06/20 12:57:50;;;;;;;9.85;0.98;;;;;;;;;;5012226;28;20064;-60
2021/06/20 13:00:19;;;;;;;13.88;1.10;;;;;;;;;;5011107;28;20041;-60
2021/06/20 13:02:49;;;;;;;8.75;0.68;;;;;;;;;;5003838;28;20041;-60
2021/06/20 13:05:27;;;;;;;8.90;0.73;;;;;;;;;;5006068;28;20111;-60
2021/06/20 13:07:53;;;;;;;9.27;0.90;;;;;;;;;;5008881;28;20112;-60
2021/06/20 13:10:20;;;;;;;7.65;0.95;;;;;;;;;;5021887;28;20137;-60
2021/06/20 13:12:47;;;;;;;6.47;1.02;;;;;;;;;;5017547;28;20092;-60
2021/06/20 13:15:14;;;;;;;12.65;1.10;;;;;;;;;;5012567;28;20356;-60
2021/06/20 13:17:42;;;;;;;9.63;1.25;;;;;;;;;;5011149;28;20478;-60
2021/06/20 13:20:10;;;;;;;5.65;0.80;;;;;;;;;;5003076;28;20486;-61
2021/06/20 13:22:37;;;;;;;11.02;1.15;;;;;;;;;;5023600;28;20481;-60
2021/06/20 13:25:04;;;;;;;9.73;1.65;;;;;;;;;;5013099;28;20046;-60
2021/06/20 13:27:31;;;;;;;6.00;1.00;;;;;;;;;;5010012;28;20041;-61
2021/06/20 13:29:58;;;;;;;10.75;1.08;;;;;;;;;;5010699;28;20037;-60
2021/06/20 13:32:27;;;;;;;5.65;0.73;;;;;;;;;;5009093;28;20050;-60
2021/06/20 13:34:54;;;;;;;4.18;0.70;;;;;;;;;;5012980;28;20121;-60
2021/06/20 13:37:22;;;;;;;11.98;1.00;;;;;;;;;;5009440;28;20107;-60
2021/06/20 13:39:49;;;;;;;3.15;0.80;;;;;;;;;;5009998;28;20046;-60
2021/06/20 13:42:15;;;;;;;8.07;0.85;;;;;;;;;;5011785;28;20064;-61
2021/06/20 13:44:42;;;;;;;5.45;1.20;;;;;;;;;;5008865;28;20509;-61
2021/06/20 13:47:09;;;;;;;12.77;1.10;;;;;;;;;;5016840;28;20065;-60
2021/06/20 13:49:36;;;;;;;8.77;0.75;;;;;;;;;;5006393;28;20040;-59
2021/06/20 13:52:03;;;;;;;7.93;0.82;;;;;;;;;;5011616;28;20030;-60
2021/06/20 13:54:30;;;;;;;3.42;0.52;;;;;;;;;;5012127;28;20073;-61
2021/06/20 13:56:57;;;;;;;4.30;1.15;;;;;;;;;;5007216;28;20096;-60
2021/06/20 13:59:25;;;;;;;11.90;1.05;;;;;;;;;;5012247;28;20056;-60
2021/06/20 14:01:52;;;;;;;5.28;0.85;;;;;;;;;;5007618;28;20042;-59
2021/06/20 14:04:20;;;;;;;10.00;0.98;;;;;;;;;;5009104;28;20034;-59
2021/06/20 14:06:47;;;;;;;4.00;0.75;;;;;;;;;;5003238;28;20046;-60
2021/06/20 14:09:14;;;;;;;2.80;0.60;;;;;;;;;;5001015;28;20520;-61
2021/06/20 14:11:42;;;;;;;8.35;0.95;;;;;;;;;;5011154;28;20501;-60
2021/06/20 14:14:09;;;;;;;5.20;0.70;;;;;;;;;;5010028;28;20033;-60
2021/06/20 14:16:36;;;;;;;11.45;1.00;;;;;;;;;;5006627;28;20061;-60
2021/06/20 14:19:03;;;;;;;6.03;0.73;;;;;;;;;;5008838;28;20137;-60
2021/06/20 14:21:30;;;;;;;9.13;0.90;;;;;;;;;;5010257;28;20104;-61
2021/06/20 14:23:56;;;;;;;8.13;0.80;;;;;;;;;;5009536;28;20593;-60
2021/06/20 14:26:23;;;;;;;10.10;0.80;;;;;;;;;;5010116;28;20053;-60
2021/06/20 14:28:50;;;;;;;3.00;0.60;;;;;;;;;;5009617;28;20069;-60
2021/06/20 14:31:17;;;;;;;11.98;1.15;;;;;;;;;;5011823;28;20034;-60
2021/06/20 14:33:45;;;;;;;6.90;0.70;;;;;;;;;;5007441;28;20541;-60
2021/06/20 14:36:12;;;;;;;10.77;1.42;;;;;;;;;;5010041;28;20037;-60
2021/06/20 14:38:39;;;;;;;7.32;1.20;;;;;;;;;;5010292;28;20029;-58
2021/06/20 14:41:08;;;;;;;15.13;0.70;;;;;;;;;;5007820;28;20081;-60
2021/06/20 14:43:35;;;;;;;12.27;1.25;;;;;;;;;;5011938;28;20149;-60
2021/06/20 14:46:02;;;;;;;11.68;1.00;;;;;;;;;;5008934;28;20568;-59
2021/06/20 14:48:29;;;;;;;9.88;0.90;;;;;;;;;;5009082;28;20038;-59
2021/06/20 14:50:56;;;;;;;12.32;1.85;;;;;;;;;;5006512;28;20051;-60